createdAt,value
2023-02-11T00:01:12.680Z,15.20
2023-02-11T00:04:10.097Z,14.70
2023-02-11T00:07:07.998Z,13.80
2023-02-11T00:10:06.516Z,14.20
2023-02-11T00:13:04.473Z,13.80
2023-02-11T00:16:01.896Z,14.50
2023-02-11T00:18:59.748Z,15.00
2023-02-11T00:21:57.176Z,14.50
2023-02-11T00:24:55.429Z,17.30
2023-02-11T00:27:52.872Z,16.00
2023-02-11T00:30:50.704Z,14.70
2023-02-11T00:33:48.523Z,15.30
2023-02-11T00:36:45.968Z,14.80
2023-02-11T00:39:43.781Z,15.80
2023-02-11T00:42:41.236Z,15.20
2023-02-11T00:45:39.084Z,15.50
2023-02-11T00:48:36.510Z,15.20
2023-02-11T00:51:34.300Z,14.70
2023-02-11T00:54:31.716Z,13.90
2023-02-11T00:57:29.637Z,15.80
2023-02-11T01:00:27.062Z,15.90
2023-02-11T01:03:24.893Z,15.50
2023-02-11T01:06:22.308Z,16.20
2023-02-11T01:09:21.514Z,14.30
2023-02-11T01:12:18.944Z,16.50
2023-02-11T01:15:16.750Z,17.20
2023-02-11T01:18:14.200Z,15.40
2023-02-11T01:21:12.078Z,15.90
2023-02-11T01:24:09.525Z,17.30
2023-02-11T01:27:07.409Z,16.60
2023-02-11T01:30:04.865Z,16.50
2023-02-11T01:33:03.159Z,16.60
2023-02-11T01:36:00.819Z,16.20
2023-02-11T01:38:58.231Z,17.20
2023-02-11T01:41:55.928Z,15.80
2023-02-11T01:44:53.346Z,16.10
2023-02-11T01:47:51.028Z,16.00
2023-02-11T01:50:48.447Z,15.80
2023-02-11T01:54:04.205Z,17.00
2023-02-11T01:57:19.582Z,15.50
2023-02-11T02:00:17.013Z,16.00
2023-02-11T02:03:14.660Z,16.50
2023-02-11T02:06:12.158Z,17.00
2023-02-11T02:09:12.288Z,16.10
2023-02-11T02:12:09.973Z,14.60
2023-02-11T02:15:07.384Z,15.10
2023-02-11T02:18:05.087Z,16.70
2023-02-11T02:21:02.540Z,16.40
2023-02-11T02:24:00.315Z,15.90
2023-02-11T02:26:58.012Z,15.40
2023-02-11T02:29:55.439Z,16.50
2023-02-11T02:32:53.107Z,15.40
2023-02-11T02:35:50.692Z,18.00
2023-02-11T02:38:49.212Z,16.60
2023-02-11T02:41:46.731Z,16.40
2023-02-11T02:44:44.470Z,15.60
2023-02-11T02:47:42.163Z,17.40
2023-02-11T02:50:39.589Z,15.10
2023-02-11T02:53:37.273Z,14.90
2023-02-11T02:56:34.788Z,13.00
2023-02-11T02:59:32.383Z,14.80
2023-02-11T03:02:29.830Z,15.80
2023-02-11T03:05:27.506Z,15.00
2023-02-11T03:08:25.170Z,14.60
2023-02-11T03:11:22.591Z,15.10
2023-02-11T03:14:20.271Z,16.20
2023-02-11T03:17:17.689Z,15.90
2023-02-11T03:20:15.284Z,15.80
2023-02-11T03:23:12.717Z,16.70
2023-02-11T03:26:10.432Z,16.60
2023-02-11T03:29:08.114Z,18.00
2023-02-11T03:32:05.568Z,18.80
2023-02-11T03:35:03.310Z,16.70
2023-02-11T03:38:00.766Z,17.80
2023-02-11T03:40:58.575Z,19.80
2023-02-11T03:43:56.286Z,19.00
2023-02-11T03:46:53.732Z,19.60
2023-02-11T03:49:51.452Z,18.50
2023-02-11T03:52:48.982Z,21.10
2023-02-11T03:55:46.581Z,18.90
2023-02-11T03:58:44.016Z,20.00
2023-02-11T04:01:41.726Z,17.60
2023-02-11T04:04:39.466Z,19.60
2023-02-11T04:07:36.934Z,18.70
2023-02-11T04:10:35.013Z,20.30
2023-02-11T04:13:32.442Z,18.10
2023-02-11T04:16:31.292Z,18.90
2023-02-11T04:19:28.812Z,18.60
2023-02-11T04:22:26.695Z,17.00
2023-02-11T04:25:24.153Z,20.40
2023-02-11T04:28:21.931Z,20.60
2023-02-11T04:31:19.853Z,19.10
2023-02-11T04:34:17.480Z,20.00
2023-02-11T04:37:15.229Z,21.40
2023-02-11T04:40:12.654Z,21.30
2023-02-11T04:43:10.284Z,20.60
2023-02-11T04:46:07.786Z,21.40
2023-02-11T04:49:06.201Z,20.40
2023-02-11T04:52:03.678Z,19.70
2023-02-11T04:55:01.332Z,21.30
2023-02-11T04:57:58.783Z,21.90
2023-02-11T05:00:56.558Z,20.10
2023-02-11T05:03:54.316Z,19.50
2023-02-11T05:06:52.167Z,20.70
2023-02-11T05:09:49.927Z,21.10
2023-02-11T05:12:47.359Z,19.60
2023-02-11T05:15:45.180Z,19.30
2023-02-11T05:18:42.630Z,20.80
2023-02-11T05:21:47.753Z,20.90
2023-02-11T05:24:54.261Z,18.40
2023-02-11T05:27:52.733Z,18.40
2023-02-11T05:30:50.210Z,17.00
2023-02-11T05:33:47.935Z,17.10
2023-02-11T05:36:45.379Z,17.90
2023-02-11T05:39:43.204Z,15.60
2023-02-11T05:42:41.460Z,15.60
2023-02-11T05:45:38.931Z,14.30
2023-02-11T05:48:36.683Z,16.10
2023-02-11T05:51:34.197Z,14.50
2023-02-11T05:54:31.913Z,14.30
2023-02-11T05:57:29.385Z,14.60
2023-02-11T06:00:27.146Z,14.40
2023-02-11T06:03:24.616Z,14.60
2023-02-11T06:06:22.353Z,16.00
2023-02-11T06:09:20.142Z,15.20
2023-02-11T06:12:17.611Z,14.80
2023-02-11T06:15:15.364Z,16.10
2023-02-11T06:18:12.798Z,14.60
2023-02-11T06:21:10.449Z,15.70
2023-02-11T06:24:08.484Z,14.80
2023-02-11T06:27:06.204Z,16.00
2023-02-11T06:30:04.638Z,15.20
2023-02-11T06:33:02.112Z,16.00
2023-02-11T06:35:59.764Z,15.10
2023-02-11T06:38:57.180Z,15.10
2023-02-11T06:41:54.956Z,17.30
2023-02-11T06:44:52.404Z,16.10
2023-02-11T06:47:50.179Z,16.70
2023-02-11T06:50:47.590Z,16.30
2023-02-11T06:53:45.398Z,15.50
2023-02-11T06:56:43.176Z,15.90
2023-02-11T06:59:40.613Z,14.10
2023-02-11T07:02:38.333Z,15.00
2023-02-11T07:05:37.183Z,14.90
2023-02-11T07:08:34.794Z,14.10
2023-02-11T07:11:32.259Z,15.20
2023-02-11T07:14:29.963Z,15.90
2023-02-11T07:17:27.407Z,15.30
2023-02-11T07:20:25.205Z,13.30
2023-02-11T07:23:22.686Z,14.70
2023-02-11T07:26:20.403Z,15.80
2023-02-11T07:29:18.203Z,20.20
2023-02-11T07:32:15.707Z,18.60
2023-02-11T07:35:13.439Z,16.80
2023-02-11T07:38:10.897Z,16.50
2023-02-11T07:41:08.645Z,15.20
2023-02-11T07:44:06.435Z,16.60
2023-02-11T07:47:03.992Z,18.50
2023-02-11T07:50:01.666Z,16.90
2023-02-11T07:52:59.134Z,16.30
2023-02-11T07:55:56.762Z,17.30
2023-02-11T07:58:54.296Z,16.60
2023-02-11T08:01:52.150Z,16.00
2023-02-11T08:04:50.190Z,16.30
2023-02-11T08:07:47.905Z,14.70
2023-02-11T08:10:45.348Z,16.00
2023-02-11T08:13:43.210Z,16.00
2023-02-11T08:16:40.906Z,16.50
2023-02-11T08:19:38.403Z,16.20
2023-02-11T08:22:36.180Z,17.00
2023-02-11T08:25:33.682Z,17.20
2023-02-11T08:28:31.498Z,15.30
2023-02-11T08:31:29.164Z,16.30
2023-02-11T08:34:27.019Z,14.30
2023-02-11T08:37:24.466Z,15.50
2023-02-11T08:40:22.098Z,15.30
2023-02-11T08:43:19.566Z,15.00
2023-02-11T08:46:17.481Z,14.70
2023-02-11T08:49:15.378Z,16.60
2023-02-11T08:52:12.957Z,16.20
2023-02-11T08:55:10.799Z,16.40
2023-02-11T08:58:08.276Z,14.90
2023-02-11T09:01:05.986Z,14.90
2023-02-11T09:04:03.518Z,16.00
2023-02-11T09:07:01.332Z,17.50
2023-02-11T09:09:58.835Z,15.10
2023-02-11T09:12:56.679Z,16.10
2023-02-11T09:15:54.136Z,17.40
2023-02-11T09:18:51.878Z,16.30
2023-02-11T09:21:49.906Z,14.90
2023-02-11T09:24:47.356Z,15.70
2023-02-11T09:27:45.814Z,16.30
2023-02-11T09:30:43.326Z,16.00
2023-02-11T09:33:42.346Z,16.40
2023-02-11T09:36:40.718Z,16.10
2023-02-11T09:39:38.195Z,15.30
2023-02-11T09:42:35.917Z,15.60
2023-02-11T09:45:33.379Z,15.00
2023-02-11T09:48:31.230Z,14.30
2023-02-11T09:51:28.679Z,14.60
2023-02-11T09:54:26.737Z,14.70
2023-02-11T09:57:29.041Z,13.90
2023-02-11T10:00:26.956Z,15.00
2023-02-11T10:03:24.650Z,14.10
2023-02-11T10:06:22.063Z,13.30
2023-02-11T10:09:19.773Z,12.70
2023-02-11T10:12:17.219Z,13.80
2023-02-11T10:15:15.427Z,15.80
2023-02-11T10:18:12.890Z,13.10
2023-02-11T10:21:11.891Z,13.90
2023-02-11T10:24:09.333Z,14.40
2023-02-11T10:27:06.933Z,12.60
2023-02-11T10:30:07.832Z,14.10
2023-02-11T10:33:05.259Z,13.40
2023-02-11T10:36:03.033Z,12.20
2023-02-11T10:39:00.497Z,13.40
2023-02-11T10:41:58.284Z,13.00
2023-02-11T10:44:55.734Z,12.60
2023-02-11T10:47:53.504Z,11.80
2023-02-11T10:50:51.572Z,11.90
2023-02-11T10:53:49.277Z,13.30
2023-02-11T10:56:47.182Z,12.90
2023-02-11T10:59:44.647Z,11.50
2023-02-11T11:02:44.511Z,10.40
2023-02-11T11:05:41.990Z,11.00
2023-02-11T11:08:39.717Z,12.70
2023-02-11T11:11:37.504Z,10.60
2023-02-11T11:14:34.941Z,12.90
2023-02-11T11:17:32.824Z,12.40
2023-02-11T11:20:32.249Z,11.20
2023-02-11T11:23:29.973Z,10.70
2023-02-11T11:26:27.651Z,11.00
2023-02-11T11:29:27.022Z,11.40
2023-02-11T11:32:24.813Z,11.00
2023-02-11T11:35:22.561Z,10.60
2023-02-11T11:38:20.603Z,11.10
2023-02-11T11:41:18.054Z,10.10
2023-02-11T11:44:15.771Z,10.00
2023-02-11T11:47:13.566Z,10.40
2023-02-11T11:50:11.010Z,9.90
2023-02-11T11:53:09.091Z,9.30
2023-02-11T11:56:07.368Z,11.70
2023-02-11T11:59:05.088Z,11.10
2023-02-11T12:02:02.848Z,9.20
2023-02-11T12:05:00.824Z,9.90
2023-02-11T12:07:58.656Z,8.40
2023-02-11T12:10:56.297Z,7.90
2023-02-11T12:13:54.104Z,8.90
2023-02-11T12:16:51.582Z,8.40
2023-02-11T12:19:49.421Z,8.20
2023-02-11T12:22:47.126Z,7.50
2023-02-11T12:25:45.090Z,8.20
2023-02-11T12:28:43.051Z,7.30
2023-02-11T12:31:41.127Z,8.70
2023-02-11T12:34:38.647Z,7.70
2023-02-11T12:37:36.717Z,7.30
2023-02-11T12:40:34.480Z,7.10
2023-02-11T12:43:32.292Z,7.30
2023-02-11T12:46:30.393Z,7.90
2023-02-11T12:49:27.836Z,8.70
2023-02-11T12:52:25.542Z,8.90
2023-02-11T12:55:23.246Z,10.50
2023-02-11T12:58:25.405Z,8.40
2023-02-11T13:01:27.446Z,9.20
2023-02-11T13:04:24.911Z,10.80
2023-02-11T13:07:22.671Z,9.60
2023-02-11T13:10:20.534Z,9.90
2023-02-11T13:13:18.564Z,9.80
2023-02-11T13:16:16.826Z,10.70
2023-02-11T13:19:14.676Z,9.70
2023-02-11T13:22:12.440Z,10.50
2023-02-11T13:25:12.755Z,10.10
2023-02-11T13:28:11.138Z,11.20
2023-02-11T13:31:10.212Z,10.90
2023-02-11T13:34:08.073Z,11.60
2023-02-11T13:37:06.311Z,11.00
2023-02-11T13:40:03.763Z,10.60
2023-02-11T13:43:01.933Z,11.50
2023-02-11T13:45:59.806Z,12.50
2023-02-11T13:48:58.281Z,12.20
2023-02-11T13:51:56.302Z,10.80
2023-02-11T13:54:54.031Z,12.10
2023-02-11T13:57:51.788Z,12.10
2023-02-11T14:00:49.744Z,10.90
2023-02-11T14:04:05.493Z,12.10
2023-02-11T14:07:21.051Z,12.20
2023-02-11T14:10:19.249Z,11.80
2023-02-11T14:13:16.760Z,11.90
2023-02-11T14:16:17.092Z,11.60
2023-02-11T14:19:18.270Z,10.90
2023-02-11T14:22:17.039Z,11.40
2023-02-11T14:25:16.340Z,10.60
2023-02-11T14:28:14.477Z,12.00
2023-02-11T14:31:12.348Z,12.00
2023-02-11T14:34:09.897Z,11.50
2023-02-11T14:37:07.751Z,11.60
2023-02-11T14:40:06.904Z,11.30
2023-02-11T14:43:05.091Z,11.50
2023-02-11T14:46:04.758Z,11.50
2023-02-11T14:49:02.352Z,10.80
2023-02-11T14:52:01.224Z,9.70
2023-02-11T14:54:59.669Z,9.60
2023-02-11T14:58:00.138Z,9.90
2023-02-11T15:00:58.972Z,10.60
2023-02-11T15:03:59.279Z,10.00
2023-02-11T15:06:58.226Z,9.20
2023-02-11T15:09:55.845Z,11.00
2023-02-11T15:12:53.920Z,9.80
2023-02-11T15:15:51.689Z,9.30
2023-02-11T15:18:49.146Z,9.00
2023-02-11T15:21:47.440Z,8.60
2023-02-11T15:24:45.096Z,7.90
2023-02-11T15:27:45.414Z,8.40
2023-02-11T15:30:43.520Z,8.40
2023-02-11T15:33:42.533Z,8.10
2023-02-11T15:36:40.876Z,8.60
2023-02-11T15:39:41.241Z,8.90
2023-02-11T15:42:52.084Z,7.70
2023-02-11T15:45:51.383Z,6.90
2023-02-11T15:48:50.602Z,7.70
2023-02-11T15:51:48.759Z,7.50
2023-02-11T15:54:50.800Z,7.20
2023-02-11T16:00:48.314Z,7.10
2023-02-11T16:03:47.687Z,8.00
2023-02-11T16:06:48.446Z,7.70
2023-02-11T16:09:46.724Z,8.10
2023-02-11T16:12:45.320Z,7.30
2023-02-11T16:15:43.831Z,7.80
2023-02-11T16:18:45.253Z,7.90
2023-02-11T16:21:46.217Z,7.80
2023-02-11T16:24:44.984Z,8.00
2023-02-11T16:27:43.975Z,8.00
2023-02-11T16:30:44.573Z,7.60
2023-02-11T16:33:43.156Z,8.80
2023-02-11T16:36:43.048Z,9.60
2023-02-11T16:39:41.256Z,9.50
2023-02-11T16:42:39.880Z,10.40
2023-02-11T16:45:38.729Z,8.80
2023-02-11T16:48:37.254Z,8.60
2023-02-11T16:51:36.046Z,8.70
2023-02-11T16:54:34.505Z,8.50
2023-02-11T16:57:33.938Z,8.80
2023-02-11T17:00:34.784Z,9.20
2023-02-11T17:03:38.049Z,8.70
2023-02-11T17:06:39.618Z,8.70
2023-02-11T17:09:39.419Z,9.10
2023-02-11T17:12:38.637Z,9.00
2023-02-11T17:15:37.938Z,8.90
2023-02-11T17:18:38.166Z,9.60
2023-02-11T17:21:36.513Z,9.70
2023-02-11T17:24:34.721Z,9.80
2023-02-11T17:27:32.941Z,11.20
2023-02-11T17:30:31.663Z,10.20
2023-02-11T17:33:31.003Z,11.10
2023-02-11T17:36:31.448Z,10.80
2023-02-11T17:39:30.849Z,10.90
2023-02-11T17:42:32.435Z,10.40
2023-02-11T17:45:32.603Z,9.50
2023-02-11T17:48:33.292Z,9.80
2023-02-11T17:51:32.455Z,9.50
2023-02-11T17:54:30.502Z,9.20
2023-02-11T17:57:30.271Z,10.50
2023-02-11T18:00:31.142Z,10.90
2023-02-11T18:03:32.520Z,11.40
2023-02-11T18:06:31.125Z,12.00
2023-02-11T18:09:29.580Z,12.40
2023-02-11T18:12:28.284Z,14.30
2023-02-11T18:15:26.773Z,10.80
2023-02-11T18:18:25.977Z,11.80
2023-02-11T18:21:24.541Z,12.30
2023-02-11T18:24:23.443Z,12.00
2023-02-11T18:27:21.871Z,11.60
2023-02-11T18:30:20.844Z,14.20
2023-02-11T18:33:19.544Z,11.80
2023-02-11T18:36:20.961Z,11.30
2023-02-11T18:39:20.800Z,12.10
2023-02-11T18:42:20.293Z,11.60
2023-02-11T18:45:19.493Z,10.40
2023-02-11T18:48:18.120Z,10.40
2023-02-11T18:51:20.454Z,10.70
2023-02-11T18:54:20.093Z,11.10
2023-02-11T18:57:19.370Z,11.60
2023-02-11T19:00:17.549Z,11.80
2023-02-11T19:03:17.780Z,10.20
2023-02-11T19:06:18.782Z,11.20
2023-02-11T19:09:18.765Z,11.50
2023-02-11T19:12:17.938Z,11.50
2023-02-11T19:15:17.027Z,11.70
2023-02-11T19:18:15.742Z,11.80
2023-02-11T19:21:15.444Z,12.20
2023-02-11T19:24:14.352Z,11.50
2023-02-11T19:27:13.810Z,12.60
2023-02-11T19:30:13.447Z,11.60
2023-02-11T19:33:13.060Z,11.40
2023-02-11T19:36:16.804Z,9.20
2023-02-11T19:39:15.340Z,11.70
2023-02-11T19:42:17.821Z,11.80
2023-02-11T19:45:17.815Z,10.80
2023-02-11T19:48:16.727Z,12.60
2023-02-11T19:51:17.009Z,11.70
2023-02-11T19:54:16.468Z,11.40
2023-02-11T19:57:15.359Z,11.90
2023-02-11T20:00:13.834Z,10.90
2023-02-11T20:03:12.481Z,11.80
2023-02-11T20:06:13.783Z,13.20
2023-02-11T20:09:11.549Z,11.80
2023-02-11T20:12:12.594Z,11.50
2023-02-11T20:15:13.900Z,12.30
2023-02-11T20:18:12.844Z,11.40
2023-02-11T20:21:11.627Z,10.10
2023-02-11T20:24:10.844Z,11.30
2023-02-11T20:27:11.162Z,12.40
2023-02-11T20:30:09.737Z,12.50
2023-02-11T20:33:08.338Z,11.60
2023-02-11T20:36:06.894Z,12.00
2023-02-11T20:39:06.044Z,12.10
2023-02-11T20:42:06.063Z,12.30
2023-02-11T20:45:04.496Z,12.60
2023-02-11T20:48:03.285Z,15.70
2023-02-11T20:51:01.757Z,11.60
2023-02-11T20:54:01.539Z,13.30
2023-02-11T20:57:06.096Z,12.40
2023-02-11T21:00:04.973Z,13.10
2023-02-11T21:03:03.301Z,13.20
2023-02-11T21:06:01.881Z,12.30
2023-02-11T21:09:01.096Z,13.20
2023-02-11T21:12:00.574Z,12.20
2023-02-11T21:14:59.178Z,13.30
2023-02-11T21:17:58.585Z,12.70
2023-02-11T21:20:57.067Z,12.00
2023-02-11T21:23:56.836Z,10.60
2023-02-11T21:26:56.122Z,12.30
2023-02-11T21:29:56.692Z,12.30
2023-02-11T21:32:55.349Z,12.10
2023-02-11T21:35:53.705Z,13.20
2023-02-11T21:38:53.099Z,13.20
2023-02-11T21:41:52.597Z,12.80
2023-02-11T21:44:50.420Z,12.00
2023-02-11T21:47:48.714Z,12.90
2023-02-11T21:50:47.345Z,12.70
2023-02-11T21:53:45.322Z,12.40
2023-02-11T21:56:43.440Z,11.90
2023-02-11T21:59:42.482Z,12.30
2023-02-11T22:02:40.638Z,12.80
2023-02-11T22:05:38.812Z,12.00
2023-02-11T22:08:37.096Z,13.00
2023-02-11T22:11:35.326Z,13.60
2023-02-11T22:14:33.153Z,13.40
2023-02-11T22:17:30.627Z,13.50
2023-02-11T22:20:28.529Z,11.70
2023-02-11T22:23:25.969Z,13.60
2023-02-11T22:26:23.820Z,13.10
2023-02-11T22:29:21.910Z,10.20
2023-02-11T22:32:19.857Z,11.90
2023-02-11T22:35:17.276Z,11.60
2023-02-11T22:38:15.254Z,11.80
2023-02-11T22:41:13.154Z,11.00
2023-02-11T22:44:10.583Z,11.90
2023-02-11T22:47:08.490Z,11.90
2023-02-11T22:50:05.910Z,11.30
2023-02-11T22:53:03.812Z,11.60
2023-02-11T22:56:01.374Z,12.90
2023-02-11T22:58:59.232Z,13.20
2023-02-11T23:01:56.873Z,12.20
2023-02-11T23:04:55.082Z,15.00
2023-02-11T23:07:52.529Z,13.50
2023-02-11T23:10:50.813Z,12.20
2023-02-11T23:13:48.323Z,13.30
2023-02-11T23:16:46.158Z,11.80
2023-02-11T23:19:43.588Z,12.90
2023-02-11T23:22:41.415Z,12.50
2023-02-11T23:25:38.849Z,11.90
2023-02-11T23:28:36.756Z,11.80
2023-02-11T23:31:35.051Z,12.90
2023-02-11T23:34:33.043Z,12.20
2023-02-11T23:37:31.324Z,11.70
2023-02-11T23:40:28.755Z,14.50
2023-02-11T23:43:26.670Z,13.10
2023-02-11T23:46:24.173Z,12.50
2023-02-11T23:49:22.180Z,13.10
2023-02-11T23:52:19.615Z,12.80
2023-02-11T23:55:17.513Z,13.40
2023-02-11T23:58:15.372Z,11.70
